sensor_id;sensor_type;location;lat;lon;timestamp;pressure;altitude;pressure_sealevel;temperature;humidity
62779;BME280;48821;48.796;2.396;2023-02-23T00:00:09;101209.28;;;11.13;66.44
62779;BME280;48821;48.796;2.396;2023-02-23T00:01:41;101214.53;;;11.13;66.46
62779;BME280;48821;48.796;2.396;2023-02-23T00:02:51;101211.91;;;11.13;66.29
62779;BME280;48821;48.796;2.396;2023-02-23T00:04:03;101211.91;;;11.13;66.15
62779;BME280;48821;48.796;2.396;2023-02-23T00:05:16;101211.91;;;11.13;66.13
62779;BME280;48821;48.796;2.396;2023-02-23T00:06:28;101207.53;;;11.12;66.29
62779;BME280;48821;48.796;2.396;2023-02-23T00:07:41;101200.53;;;11.12;66.11
62779;BME280;48821;48.796;2.396;2023-02-23T00:08:54;101204.03;;;11.13;66.08
62779;BME280;48821;48.796;2.396;2023-02-23T00:10:06;101210.16;;;11.13;66.18
62779;BME280;48821;48.796;2.396;2023-02-23T00:11:21;101211.81;;;11.16;66.03
62779;BME280;48821;48.796;2.396;2023-02-23T00:12:31;101207.41;;;11.17;66.31
62779;BME280;48821;48.796;2.396;2023-02-23T00:13:47;101200.38;;;11.17;65.63
62779;BME280;48821;48.796;2.396;2023-02-23T00:15:00;101200.38;;;11.17;66.17
62779;BME280;48821;48.796;2.396;2023-02-23T00:16:13;101203.88;;;11.18;65.85
62779;BME280;48821;48.796;2.396;2023-02-23T00:17:25;101196.03;;;11.16;65.98
62779;BME280;48821;48.796;2.396;2023-02-23T00:18:37;101202.13;;;11.18;65.96
62779;BME280;48821;48.796;2.396;2023-02-23T00:19:55;101194.25;;;11.18;65.70
62779;BME280;48821;48.796;2.396;2023-02-23T00:21:08;101201.19;;;11.19;65.55
62779;BME280;48821;48.796;2.396;2023-02-23T00:22:20;101197.69;;;11.20;65.67
62779;BME280;48821;48.796;2.396;2023-02-23T00:23:32;101203.81;;;11.21;65.79
62779;BME280;48821;48.796;2.396;2023-02-23T00:24:45;101202.94;;;11.20;65.44
62779;BME280;48821;48.796;2.396;2023-02-23T00:25:57;101204.66;;;11.21;65.20
62779;BME280;48821;48.796;2.396;2023-02-23T00:27:09;101203.81;;;11.21;65.39
62779;BME280;48821;48.796;2.396;2023-02-23T00:28:23;101202.94;;;11.20;65.50
62779;BME280;48821;48.796;2.396;2023-02-23T00:29:33;101200.31;;;11.20;65.39
62779;BME280;48821;48.796;2.396;2023-02-23T00:30:48;101206.44;;;11.21;65.63
62779;BME280;48821;48.796;2.396;2023-02-23T00:32:00;101202.88;;;11.23;65.42
62779;BME280;48821;48.796;2.396;2023-02-23T00:33:12;101202.88;;;11.23;65.39
62779;BME280;48821;48.796;2.396;2023-02-23T00:34:24;101202.00;;;11.23;65.24
62779;BME280;48821;48.796;2.396;2023-02-23T00:35:36;101202.88;;;11.23;65.23
62779;BME280;48821;48.796;2.396;2023-02-23T00:36:51;101205.50;;;11.23;65.46
62779;BME280;48821;48.796;2.396;2023-02-23T00:38:05;101208.13;;;11.23;65.26
62779;BME280;48821;48.796;2.396;2023-02-23T00:39:16;101199.38;;;11.23;65.21
62779;BME280;48821;48.796;2.396;2023-02-23T00:40:39;101194.19;;;11.20;65.58
62779;BME280;48821;48.796;2.396;2023-02-23T00:41:52;101204.72;;;11.20;65.25
62779;BME280;48821;48.796;2.396;2023-02-23T00:43:03;101202.13;;;11.18;65.56
62779;BME280;48821;48.796;2.396;2023-02-23T00:44:15;101196.81;;;11.20;65.40
62779;BME280;48821;48.796;2.396;2023-02-23T00:45:27;101201.19;;;11.19;65.62
62779;BME280;48821;48.796;2.396;2023-02-23T00:46:40;101194.25;;;11.18;65.36
62779;BME280;48821;48.796;2.396;2023-02-23T00:47:51;101205.56;;;11.20;65.52
62779;BME280;48821;48.796;2.396;2023-02-23T00:49:03;101195.94;;;11.19;65.42
62779;BME280;48821;48.796;2.396;2023-02-23T00:50:16;101202.94;;;11.20;65.18
62779;BME280;48821;48.796;2.396;2023-02-23T00:51:28;101203.84;;;11.19;65.26
62779;BME280;48821;48.796;2.396;2023-02-23T00:52:43;101198.56;;;11.19;65.32
62779;BME280;48821;48.796;2.396;2023-02-23T00:53:54;101204.72;;;11.20;65.51
62779;BME280;48821;48.796;2.396;2023-02-23T00:55:08;101205.59;;;11.19;65.71
62779;BME280;48821;48.796;2.396;2023-02-23T00:56:23;101203.84;;;11.19;65.51
62779;BME280;48821;48.796;2.396;2023-02-23T00:57:34;101209.09;;;11.19;65.45
62779;BME280;48821;48.796;2.396;2023-02-23T00:58:44;101206.53;;;11.18;65.67
62779;BME280;48821;48.796;2.396;2023-02-23T00:59:56;101209.16;;;11.18;65.36
62779;BME280;48821;48.796;2.396;2023-02-23T01:01:10;101208.34;;;11.16;65.40
62779;BME280;48821;48.796;2.396;2023-02-23T01:02:22;101210.97;;;11.16;65.50
62779;BME280;48821;48.796;2.396;2023-02-23T01:03:33;101207.47;;;11.15;65.41
62779;BME280;48821;48.796;2.396;2023-02-23T01:04:44;101211.88;;;11.14;64.93
62779;BME280;48821;48.796;2.396;2023-02-23T01:06:00;101211.91;;;11.13;64.99
62779;BME280;48821;48.796;2.396;2023-02-23T01:07:14;101215.44;;;11.12;65.51
62779;BME280;48821;48.796;2.396;2023-02-23T01:08:28;101210.19;;;11.12;65.31
62779;BME280;48821;48.796;2.396;2023-02-23T01:09:40;101210.19;;;11.12;65.57
62779;BME280;48821;48.796;2.396;2023-02-23T01:10:52;101205.84;;;11.11;65.52
62779;BME280;48821;48.796;2.396;2023-02-23T01:12:04;101204.03;;;11.11;65.40
62779;BME280;48821;48.796;2.396;2023-02-23T01:13:20;101207.59;;;11.10;65.58
62779;BME280;48821;48.796;2.396;2023-02-23T01:14:32;101205.00;;;11.09;65.74
62779;BME280;48821;48.796;2.396;2023-02-23T01:15:44;101214.63;;;11.10;65.49
62779;BME280;48821;48.796;2.396;2023-02-23T01:16:57;101206.78;;;11.08;65.44
62779;BME280;48821;48.796;2.396;2023-02-23T01:18:10;101208.53;;;11.08;65.40
62779;BME280;48821;48.796;2.396;2023-02-23T01:19:20;101218.19;;;11.07;65.58
62779;BME280;48821;48.796;2.396;2023-02-23T01:20:33;101212.06;;;11.07;65.86
62779;BME280;48821;48.796;2.396;2023-02-23T01:21:45;101221.75;;;11.06;65.74
62779;BME280;48821;48.796;2.396;2023-02-23T01:22:57;101217.38;;;11.05;65.60
62779;BME280;48821;48.796;2.396;2023-02-23T01:24:10;101227.03;;;11.05;65.50
62779;BME280;48821;48.796;2.396;2023-02-23T01:25:21;101216.50;;;11.05;65.52
62779;BME280;48821;48.796;2.396;2023-02-23T01:26:36;101213.94;;;11.03;65.25
62779;BME280;48821;48.796;2.396;2023-02-23T01:27:48;101213.06;;;11.02;65.57
62779;BME280;48821;48.796;2.396;2023-02-23T01:29:08;101209.56;;;11.02;65.54
62779;BME280;48821;48.796;2.396;2023-02-23T01:30:20;101214.81;;;11.02;65.42
62779;BME280;48821;48.796;2.396;2023-02-23T01:31:32;101212.19;;;11.02;65.67
62779;BME280;48821;48.796;2.396;2023-02-23T01:32:44;101213.97;;;11.01;65.36
62779;BME280;48821;48.796;2.396;2023-02-23T01:33:58;101211.31;;;11.01;65.38
62779;BME280;48821;48.796;2.396;2023-02-23T01:35:11;101216.59;;;11.01;65.38
62779;BME280;48821;48.796;2.396;2023-02-23T01:36:22;101220.97;;;11.02;65.54
62779;BME280;48821;48.796;2.396;2023-02-23T01:37:36;101213.97;;;11.01;65.60
62779;BME280;48821;48.796;2.396;2023-02-23T01:38:51;101213.97;;;11.01;65.41
62779;BME280;48821;48.796;2.396;2023-02-23T01:40:41;101215.69;;;11.02;65.48
62779;BME280;48821;48.796;2.396;2023-02-23T01:41:48;101214.81;;;11.03;65.39
62779;BME280;48821;48.796;2.396;2023-02-23T01:43:18;101221.78;;;11.05;65.50
62779;BME280;48821;48.796;2.396;2023-02-23T01:45:48;101216.50;;;11.05;65.14
62779;BME280;48821;48.796;2.396;2023-02-23T01:47:00;101214.81;;;11.03;65.31
62779;BME280;48821;48.796;2.396;2023-02-23T01:48:14;101214.75;;;11.05;65.29
62779;BME280;48821;48.796;2.396;2023-02-23T01:49:28;101214.75;;;11.05;65.33
62779;BME280;48821;48.796;2.396;2023-02-23T01:50:49;101218.28;;;11.04;65.39
62779;BME280;48821;48.796;2.396;2023-02-23T01:52:13;101217.44;;;11.03;65.65
62779;BME280;48821;48.796;2.396;2023-02-23T01:53:29;101213.88;;;11.05;65.13
62779;BME280;48821;48.796;2.396;2023-02-23T01:54:45;101207.81;;;11.02;65.18
62779;BME280;48821;48.796;2.396;2023-02-23T01:56:04;101207.81;;;11.02;65.15
62779;BME280;48821;48.796;2.396;2023-02-23T01:57:21;101215.69;;;11.02;65.33
62779;BME280;48821;48.796;2.396;2023-02-23T01:58:35;101211.31;;;11.03;65.44
62779;BME280;48821;48.796;2.396;2023-02-23T01:59:48;101213.06;;;11.02;65.23
62779;BME280;48821;48.796;2.396;2023-02-23T02:01:01;101216.56;;;11.03;65.21
62779;BME280;48821;48.796;2.396;2023-02-23T02:02:14;101212.19;;;11.02;65.23
62779;BME280;48821;48.796;2.396;2023-02-23T02:03:38;101209.56;;;11.02;65.15
62779;BME280;48821;48.796;2.396;2023-02-23T02:04:51;101215.75;;;11.01;65.19
62779;BME280;48821;48.796;2.396;2023-02-23T02:06:07;101215.78;;;10.99;65.22
62779;BME280;48821;48.796;2.396;2023-02-23T02:07:25;101209.63;;;10.99;65.07
62779;BME280;48821;48.796;2.396;2023-02-23T02:08:39;101212.28;;;10.99;65.23
62779;BME280;48821;48.796;2.396;2023-02-23T02:09:57;101216.69;;;10.98;65.29
62779;BME280;48821;48.796;2.396;2023-02-23T02:11:34;101213.19;;;10.98;65.21
62779;BME280;48821;48.796;2.396;2023-02-23T02:12:51;101210.50;;;10.99;65.21
62779;BME280;48821;48.796;2.396;2023-02-23T02:19:37;101196.66;;;10.93;64.92
62779;BME280;48821;48.796;2.396;2023-02-23T02:23:12;101198.53;;;10.89;64.88
62779;BME280;48821;48.796;2.396;2023-02-23T02:24:49;101197.66;;;10.88;65.07
62779;BME280;48821;48.796;2.396;2023-02-23T02:37:14;101201.19;;;10.87;65.06
62779;BME280;48821;48.796;2.396;2023-02-23T02:38:34;101197.66;;;10.88;64.93
62779;BME280;48821;48.796;2.396;2023-02-23T02:43:05;101203.88;;;10.86;65.14
62779;BME280;48821;48.796;2.396;2023-02-23T02:44:30;101203.88;;;10.86;65.06
62779;BME280;48821;48.796;2.396;2023-02-23T02:47:16;101204.75;;;10.86;65.16
62779;BME280;48821;48.796;2.396;2023-02-23T02:50:21;101205.56;;;10.87;64.95
62779;BME280;48821;48.796;2.396;2023-02-23T02:51:45;101206.53;;;10.84;64.97
62779;BME280;48821;48.796;2.396;2023-02-23T02:53:06;101202.13;;;10.85;65.09
62779;BME280;48821;48.796;2.396;2023-02-23T02:54:29;101205.69;;;10.84;64.88
62779;BME280;48821;48.796;2.396;2023-02-23T02:55:42;101195.19;;;10.82;65.02
62779;BME280;48821;48.796;2.396;2023-02-23T02:57:00;101203.94;;;10.83;64.81
62779;BME280;48821;48.796;2.396;2023-02-23T02:58:16;101201.38;;;10.81;64.59
62779;BME280;48821;48.796;2.396;2023-02-23T02:59:28;101206.63;;;10.81;64.87
62779;BME280;48821;48.796;2.396;2023-02-23T03:01:05;101203.94;;;10.83;65.01
62779;BME280;48821;48.796;2.396;2023-02-23T03:02:38;101201.38;;;10.81;65.03
62779;BME280;48821;48.796;2.396;2023-02-23T03:04:23;101202.19;;;10.82;64.91
62779;BME280;48821;48.796;2.396;2023-02-23T03:05:54;101204.00;;;10.79;64.92
62779;BME280;48821;48.796;2.396;2023-02-23T03:11:10;101200.56;;;10.77;64.74
62779;BME280;48821;48.796;2.396;2023-02-23T03:12:52;101200.63;;;10.76;64.96
62779;BME280;48821;48.796;2.396;2023-02-23T03:14:38;101198.00;;;10.74;64.75
62779;BME280;48821;48.796;2.396;2023-02-23T03:16:30;101202.44;;;10.72;64.75
62779;BME280;48821;48.796;2.396;2023-02-23T03:20:51;101198.19;;;10.68;64.63
62779;BME280;48821;48.796;2.396;2023-02-23T03:22:37;101198.25;;;10.66;64.84
62779;BME280;48821;48.796;2.396;2023-02-23T03:29:24;101192.13;;;10.64;64.82
62779;BME280;48821;48.796;2.396;2023-02-23T03:32:54;101198.25;;;10.65;64.61
62779;BME280;48821;48.796;2.396;2023-02-23T03:34:32;101189.50;;;10.64;64.76
62779;BME280;48821;48.796;2.396;2023-02-23T03:36:32;101192.13;;;10.64;64.57
62779;BME280;48821;48.796;2.396;2023-02-23T03:38:17;101196.50;;;10.65;64.69
62779;BME280;48821;48.796;2.396;2023-02-23T03:40:03;101191.25;;;10.65;64.60
62779;BME280;48821;48.796;2.396;2023-02-23T03:41:39;101192.13;;;10.66;64.54
62779;BME280;48821;48.796;2.396;2023-02-23T03:43:16;101196.44;;;10.67;64.64
62779;BME280;48821;48.796;2.396;2023-02-23T03:44:49;101192.13;;;10.66;64.44
62779;BME280;48821;48.796;2.396;2023-02-23T03:46:24;101192.13;;;10.66;64.33
62779;BME280;48821;48.796;2.396;2023-02-23T03:47:58;101200.00;;;10.66;64.66
62779;BME280;48821;48.796;2.396;2023-02-23T03:49:34;101200.88;;;10.65;64.31
62779;BME280;48821;48.796;2.396;2023-02-23T03:51:07;101206.19;;;10.63;63.80
62779;BME280;48821;48.796;2.396;2023-02-23T03:52:44;101201.94;;;10.59;64.10
62779;BME280;48821;48.796;2.396;2023-02-23T03:54:39;101195.81;;;10.57;64.08
62779;BME280;48821;48.796;2.396;2023-02-23T03:56:12;101194.13;;;10.54;64.05
62779;BME280;48821;48.796;2.396;2023-02-23T03:57:49;101188.94;;;10.53;64.38
62779;BME280;48821;48.796;2.396;2023-02-23T03:59:24;101192.47;;;10.52;64.20
62779;BME280;48821;48.796;2.396;2023-02-23T04:00:58;101195.09;;;10.52;64.50
62779;BME280;48821;48.796;2.396;2023-02-23T04:02:33;101194.25;;;10.51;64.26
62779;BME280;48821;48.796;2.396;2023-02-23T04:04:05;101199.50;;;10.51;64.53
62779;BME280;48821;48.796;2.396;2023-02-23T04:05:39;101202.94;;;10.53;64.28
62779;BME280;48821;48.796;2.396;2023-02-23T04:07:15;101197.72;;;10.52;64.45
62779;BME280;48821;48.796;2.396;2023-02-23T04:08:48;101193.38;;;10.51;64.32
62779;BME280;48821;48.796;2.396;2023-02-23T04:10:20;101204.72;;;10.50;64.12
62779;BME280;48821;48.796;2.396;2023-02-23T04:13:36;101199.69;;;10.42;63.96
62779;BME280;48821;48.796;2.396;2023-02-23T04:16:07;101212.09;;;10.37;64.01
62779;BME280;48821;48.796;2.396;2023-02-23T04:17:18;101205.16;;;10.32;63.49
62779;BME280;48821;48.796;2.396;2023-02-23T04:18:33;101208.69;;;10.31;64.00
62779;BME280;48821;48.796;2.396;2023-02-23T04:19:51;101211.44;;;10.27;64.02
62779;BME280;48821;48.796;2.396;2023-02-23T04:21:03;101209.69;;;10.26;64.10
62779;BME280;48821;48.796;2.396;2023-02-23T04:22:14;101209.75;;;10.22;63.80
62779;BME280;48821;48.796;2.396;2023-02-23T04:23:26;101217.69;;;10.21;64.06
62779;BME280;48821;48.796;2.396;2023-02-23T04:24:38;101213.31;;;10.20;64.19
62779;BME280;48821;48.796;2.396;2023-02-23T04:25:51;101216.00;;;10.18;64.12
62779;BME280;48821;48.796;2.396;2023-02-23T04:27:02;101213.38;;;10.18;64.14
62779;BME280;48821;48.796;2.396;2023-02-23T04:28:14;101216.00;;;10.18;64.48
62779;BME280;48821;48.796;2.396;2023-02-23T04:29:26;101217.75;;;10.18;64.08
62779;BME280;48821;48.796;2.396;2023-02-23T04:30:38;101219.53;;;10.17;64.16
62779;BME280;48821;48.796;2.396;2023-02-23T04:31:50;101219.56;;;10.16;64.09
62779;BME280;48821;48.796;2.396;2023-02-23T04:33:02;101214.31;;;10.16;64.12
62779;BME280;48821;48.796;2.396;2023-02-23T04:34:13;101214.34;;;10.14;64.05
62779;BME280;48821;48.796;2.396;2023-02-23T04:35:26;101211.72;;;10.14;63.93
62779;BME280;48821;48.796;2.396;2023-02-23T04:36:40;101214.38;;;10.12;64.05
62779;BME280;48821;48.796;2.396;2023-02-23T04:37:51;101212.66;;;10.11;64.18
62779;BME280;48821;48.796;2.396;2023-02-23T04:39:03;101216.19;;;10.10;64.13
62779;BME280;48821;48.796;2.396;2023-02-23T04:40:16;101215.34;;;10.08;63.82
62779;BME280;48821;48.796;2.396;2023-02-23T04:41:27;101215.41;;;10.05;64.41
62779;BME280;48821;48.796;2.396;2023-02-23T04:42:40;101217.19;;;10.05;64.19
62779;BME280;48821;48.796;2.396;2023-02-23T04:43:51;101211.09;;;10.02;64.63
62779;BME280;48821;48.796;2.396;2023-02-23T04:45:04;101220.75;;;10.02;64.22
62779;BME280;48821;48.796;2.396;2023-02-23T04:46:15;101216.41;;;10.01;64.35
62779;BME280;48821;48.796;2.396;2023-02-23T04:47:26;101216.41;;;10.01;64.46
62779;BME280;48821;48.796;2.396;2023-02-23T04:48:38;101218.13;;;10.02;64.34
62779;BME280;48821;48.796;2.396;2023-02-23T04:49:51;101217.31;;;10.00;64.32
62779;BME280;48821;48.796;2.396;2023-02-23T04:51:04;101217.31;;;9.98;64.34
62779;BME280;48821;48.796;2.396;2023-02-23T04:52:16;101221.72;;;9.98;64.36
62779;BME280;48821;48.796;2.396;2023-02-23T04:53:27;101220.88;;;9.97;64.48
62779;BME280;48821;48.796;2.396;2023-02-23T04:54:40;101216.56;;;9.95;64.44
62779;BME280;48821;48.796;2.396;2023-02-23T04:55:52;101220.06;;;9.94;64.38
62779;BME280;48821;48.796;2.396;2023-02-23T04:57:05;101227.94;;;9.94;64.40
62779;BME280;48821;48.796;2.396;2023-02-23T04:58:15;101239.31;;;9.93;64.51
62779;BME280;48821;48.796;2.396;2023-02-23T04:59:27;101237.56;;;9.95;64.53
62779;BME280;48821;48.796;2.396;2023-02-23T05:00:39;101234.94;;;9.93;64.66
62779;BME280;48821;48.796;2.396;2023-02-23T05:01:51;101236.69;;;9.93;64.38
62779;BME280;48821;48.796;2.396;2023-02-23T05:03:03;101235.88;;;9.92;64.22
62779;BME280;48821;48.796;2.396;2023-02-23T05:04:15;101240.25;;;9.92;64.53
62779;BME280;48821;48.796;2.396;2023-02-23T05:05:27;101244.56;;;9.93;64.45
62779;BME280;48821;48.796;2.396;2023-02-23T05:06:39;101248.06;;;9.93;64.36
62779;BME280;48821;48.796;2.396;2023-02-23T05:07:51;101242.81;;;9.93;64.43
62779;BME280;48821;48.796;2.396;2023-02-23T05:09:05;101246.31;;;9.94;64.47
62779;BME280;48821;48.796;2.396;2023-02-23T05:10:16;101247.19;;;9.94;64.71
62779;BME280;48821;48.796;2.396;2023-02-23T05:11:28;101254.19;;;9.94;64.44
62779;BME280;48821;48.796;2.396;2023-02-23T05:12:39;101254.19;;;9.94;64.51
62779;BME280;48821;48.796;2.396;2023-02-23T05:13:51;101249.81;;;9.94;64.50
62779;BME280;48821;48.796;2.396;2023-02-23T05:15:02;101255.91;;;9.96;64.46
62779;BME280;48821;48.796;2.396;2023-02-23T05:16:14;101254.13;;;9.97;64.43
62779;BME280;48821;48.796;2.396;2023-02-23T05:17:26;101256.75;;;9.97;64.18
62779;BME280;48821;48.796;2.396;2023-02-23T05:18:38;101260.25;;;9.97;64.17
62779;BME280;48821;48.796;2.396;2023-02-23T05:19:50;101267.22;;;9.98;64.47
62779;BME280;48821;48.796;2.396;2023-02-23T05:21:06;101266.34;;;9.98;64.25
62779;BME280;48821;48.796;2.396;2023-02-23T05:22:17;101263.72;;;9.98;64.37
62779;BME280;48821;48.796;2.396;2023-02-23T05:23:29;101253.22;;;9.98;64.39
62779;BME280;48821;48.796;2.396;2023-02-23T05:24:41;101258.47;;;9.98;64.68
62779;BME280;48821;48.796;2.396;2023-02-23T05:25:53;101251.50;;;9.97;64.52
62779;BME280;48821;48.796;2.396;2023-02-23T05:27:06;101254.97;;;9.99;64.20
62779;BME280;48821;48.796;2.396;2023-02-23T05:28:17;101251.50;;;9.97;64.37
62779;BME280;48821;48.796;2.396;2023-02-23T05:29:29;101255.00;;;9.97;64.11
62779;BME280;48821;48.796;2.396;2023-02-23T05:30:41;101254.16;;;9.95;64.20
62779;BME280;48821;48.796;2.396;2023-02-23T05:31:53;101259.41;;;9.95;64.12
62779;BME280;48821;48.796;2.396;2023-02-23T05:33:05;101259.41;;;9.97;64.46
62779;BME280;48821;48.796;2.396;2023-02-23T05:34:16;101258.47;;;9.98;64.31
62779;BME280;48821;48.796;2.396;2023-02-23T05:35:28;101255.84;;;9.98;64.39
62779;BME280;48821;48.796;2.396;2023-02-23T05:36:40;101257.63;;;9.97;64.11
62779;BME280;48821;48.796;2.396;2023-02-23T05:37:52;101258.47;;;9.98;64.23
62779;BME280;48821;48.796;2.396;2023-02-23T05:39:04;101259.41;;;9.97;64.36
62779;BME280;48821;48.796;2.396;2023-02-23T05:40:16;101260.25;;;9.97;63.83
62779;BME280;48821;48.796;2.396;2023-02-23T05:41:28;101260.25;;;9.97;63.89
62779;BME280;48821;48.796;2.396;2023-02-23T05:42:40;101255.91;;;9.96;64.03
62779;BME280;48821;48.796;2.396;2023-02-23T05:43:54;101264.66;;;9.95;64.05
62779;BME280;48821;48.796;2.396;2023-02-23T05:45:05;101268.19;;;9.94;63.94
62779;BME280;48821;48.796;2.396;2023-02-23T05:46:19;101262.94;;;9.94;64.12
62779;BME280;48821;48.796;2.396;2023-02-23T05:47:31;101262.06;;;9.94;64.12
62779;BME280;48821;48.796;2.396;2023-02-23T05:48:42;101271.69;;;9.95;64.22
62779;BME280;48821;48.796;2.396;2023-02-23T05:49:53;101265.56;;;9.94;63.67
62779;BME280;48821;48.796;2.396;2023-02-23T05:51:08;101269.06;;;9.95;64.05
62779;BME280;48821;48.796;2.396;2023-02-23T05:52:19;101268.19;;;9.94;64.30
62779;BME280;48821;48.796;2.396;2023-02-23T05:53:31;101262.97;;;9.93;64.03
62779;BME280;48821;48.796;2.396;2023-02-23T05:54:43;101265.59;;;9.93;64.06
62779;BME280;48821;48.796;2.396;2023-02-23T05:55:55;101270.84;;;9.93;64.04
62779;BME280;48821;48.796;2.396;2023-02-23T05:57:07;101273.47;;;9.93;64.08
62779;BME280;48821;48.796;2.396;2023-02-23T05:58:18;101271.69;;;9.95;64.17
62779;BME280;48821;48.796;2.396;2023-02-23T05:59:30;101264.66;;;9.95;64.36
62779;BME280;48821;48.796;2.396;2023-02-23T06:00:42;101268.16;;;9.96;64.27
62779;BME280;48821;48.796;2.396;2023-02-23T06:01:54;101275.16;;;9.95;64.53
62779;BME280;48821;48.796;2.396;2023-02-23T06:03:06;101264.66;;;9.95;64.26
62779;BME280;48821;48.796;2.396;2023-02-23T06:04:18;101267.28;;;9.97;63.95
62779;BME280;48821;48.796;2.396;2023-02-23T06:05:31;101259.34;;;9.98;64.04
62779;BME280;48821;48.796;2.396;2023-02-23T06:06:43;101257.53;;;10.00;64.63
62779;BME280;48821;48.796;2.396;2023-02-23T06:07:54;101260.16;;;10.02;64.22
62779;BME280;48821;48.796;2.396;2023-02-23T06:09:06;101263.59;;;10.04;64.21
62779;BME280;48821;48.796;2.396;2023-02-23T06:10:18;101261.84;;;10.05;64.15
62779;BME280;48821;48.796;2.396;2023-02-23T06:11:30;101271.50;;;10.04;64.05
62779;BME280;48821;48.796;2.396;2023-02-23T06:12:41;101262.78;;;10.02;63.78
62779;BME280;48821;48.796;2.396;2023-02-23T06:13:53;101267.22;;;10.00;63.85
62779;BME280;48821;48.796;2.396;2023-02-23T06:15:06;101265.47;;;9.99;63.93
62779;BME280;48821;48.796;2.396;2023-02-23T06:16:17;101268.97;;;9.98;63.97
62779;BME280;48821;48.796;2.396;2023-02-23T06:17:29;101269.91;;;9.97;63.78
62779;BME280;48821;48.796;2.396;2023-02-23T06:18:40;101264.69;;;9.94;63.41
62779;BME280;48821;48.796;2.396;2023-02-23T06:19:52;101264.75;;;9.92;63.63
62779;BME280;48821;48.796;2.396;2023-02-23T06:21:03;101265.69;;;9.89;63.61
62779;BME280;48821;48.796;2.396;2023-02-23T06:22:15;101255.22;;;9.86;63.76
62779;BME280;48821;48.796;2.396;2023-02-23T06:23:27;101267.50;;;9.86;63.60
62779;BME280;48821;48.796;2.396;2023-02-23T06:24:38;101265.78;;;9.85;63.85
62779;BME280;48821;48.796;2.396;2023-02-23T06:25:50;101270.19;;;9.83;63.69
62779;BME280;48821;48.796;2.396;2023-02-23T06:27:02;101274.63;;;9.79;63.63
62779;BME280;48821;48.796;2.396;2023-02-23T06:28:14;101272.91;;;9.78;63.55
62779;BME280;48821;48.796;2.396;2023-02-23T06:29:26;101269.44;;;9.76;64.01
62779;BME280;48821;48.796;2.396;2023-02-23T06:30:38;101259.88;;;9.73;63.61
62779;BME280;48821;48.796;2.396;2023-02-23T06:31:50;101267.72;;;9.75;63.90
62779;BME280;48821;48.796;2.396;2023-02-23T06:33:02;101271.25;;;9.74;63.86
62779;BME280;48821;48.796;2.396;2023-02-23T06:34:14;101259.91;;;9.72;63.69
62779;BME280;48821;48.796;2.396;2023-02-23T06:35:25;101263.41;;;9.72;63.47
62779;BME280;48821;48.796;2.396;2023-02-23T06:36:37;101267.84;;;9.70;63.66
62779;BME280;48821;48.796;2.396;2023-02-23T06:37:49;101266.03;;;9.71;63.76
62779;BME280;48821;48.796;2.396;2023-02-23T06:39:02;101264.34;;;9.70;63.55
62779;BME280;48821;48.796;2.396;2023-02-23T06:40:13;101261.72;;;9.70;63.81
62779;BME280;48821;48.796;2.396;2023-02-23T06:41:25;101262.53;;;9.72;64.02
62779;BME280;48821;48.796;2.396;2023-02-23T06:42:37;101259.97;;;9.70;63.84
62779;BME280;48821;48.796;2.396;2023-02-23T06:43:49;101258.22;;;9.69;63.75
62779;BME280;48821;48.796;2.396;2023-02-23T06:45:02;101264.34;;;9.70;63.59
62779;BME280;48821;48.796;2.396;2023-02-23T06:46:14;101268.72;;;9.69;63.85
62779;BME280;48821;48.796;2.396;2023-02-23T06:47:26;101269.59;;;9.70;63.90
62779;BME280;48821;48.796;2.396;2023-02-23T06:48:38;101266.91;;;9.71;63.96
62779;BME280;48821;48.796;2.396;2023-02-23T06:49:50;101270.47;;;9.70;64.18
62779;BME280;48821;48.796;2.396;2023-02-23T06:51:02;101271.31;;;9.71;63.68
62779;BME280;48821;48.796;2.396;2023-02-23T06:52:14;101268.66;;;9.71;63.92
62779;BME280;48821;48.796;2.396;2023-02-23T06:53:26;101276.53;;;9.71;63.82
62779;BME280;48821;48.796;2.396;2023-02-23T06:54:39;101272.22;;;9.70;63.93
62779;BME280;48821;48.796;2.396;2023-02-23T06:55:50;101276.53;;;9.71;63.65
62779;BME280;48821;48.796;2.396;2023-02-23T06:57:02;101276.59;;;9.69;63.81
62779;BME280;48821;48.796;2.396;2023-02-23T06:58:14;101274.84;;;9.70;63.91
62779;BME280;48821;48.796;2.396;2023-02-23T06:59:26;101276.53;;;9.71;63.73
62779;BME280;48821;48.796;2.396;2023-02-23T07:00:38;101287.97;;;9.70;63.46
62779;BME280;48821;48.796;2.396;2023-02-23T07:01:52;101287.03;;;9.71;63.96
62779;BME280;48821;48.796;2.396;2023-02-23T07:03:04;101285.34;;;9.70;63.69
62779;BME280;48821;48.796;2.396;2023-02-23T07:04:16;101287.97;;;9.70;63.56
62779;BME280;48821;48.796;2.396;2023-02-23T07:05:28;101288.84;;;9.68;63.97
62779;BME280;48821;48.796;2.396;2023-02-23T07:06:40;101290.59;;;9.68;63.72
62779;BME280;48821;48.796;2.396;2023-02-23T07:07:52;101287.13;;;9.67;63.57
62779;BME280;48821;48.796;2.396;2023-02-23T07:09:04;101291.50;;;9.67;64.04
62779;BME280;48821;48.796;2.396;2023-02-23T07:10:15;101286.25;;;9.67;63.75
62779;BME280;48821;48.796;2.396;2023-02-23T07:11:27;101299.38;;;9.67;64.04
62779;BME280;48821;48.796;2.396;2023-02-23T07:12:39;101292.38;;;9.67;64.09
62779;BME280;48821;48.796;2.396;2023-02-23T07:13:51;101297.63;;;9.67;64.06
62779;BME280;48821;48.796;2.396;2023-02-23T07:15:03;101293.22;;;9.68;63.90
62779;BME280;48821;48.796;2.396;2023-02-23T07:16:14;101290.59;;;9.68;63.93
62779;BME280;48821;48.796;2.396;2023-02-23T07:17:25;101295.00;;;9.67;63.96
62779;BME280;48821;48.796;2.396;2023-02-23T07:18:37;101297.63;;;9.67;63.99
62779;BME280;48821;48.796;2.396;2023-02-23T07:19:49;101292.38;;;9.67;63.97
62779;BME280;48821;48.796;2.396;2023-02-23T07:21:01;101298.47;;;9.68;64.06
62779;BME280;48821;48.796;2.396;2023-02-23T07:22:13;101303.72;;;9.68;64.31